Time;durP1;ratioP1;P1;durP2;ratioP2;P2;SDS_P1;SDS_P2;PMS_P1;PMS_P2;Temp;Humidity;BMP_temperature;BMP_pressure;BME280_temperature;BME280_humidity;BME280_pressure;Samples;Min_cycle;Max_cycle;Signal;HPM_P1;HPM_P2
2022/03/18 00:02:23;;;;;;;31.30;8.65;;;1.10;99.90;;;;;;5013594;28;20091;-82
2022/03/18 00:04:50;;;;;;;21.08;7.50;;;1.50;99.90;;;;;;5015727;28;20038;-82
2022/03/18 00:07:17;;;;;;;29.10;8.00;;;1.40;99.90;;;;;;5015833;28;20081;-81
2022/03/18 00:09:42;;;;;;;31.75;8.93;;;1.10;99.90;;;;;;5015619;28;20508;-82
2022/03/18 00:12:09;;;;;;;34.85;9.68;;;0.90;99.90;;;;;;5023521;28;20030;-82
2022/03/18 00:14:41;;;;;;;28.65;9.88;;;0.80;99.90;;;;;;5033932;28;20029;-80
2022/03/18 00:17:14;;;;;;;33.72;9.52;;;0.80;99.90;;;;;;5036989;28;20104;-80
2022/03/18 00:19:42;;;;;;;31.63;9.20;;;0.80;99.90;;;;;;5019618;28;20056;-80
2022/03/18 00:22:11;;;;;;;35.47;9.20;;;1.10;99.90;;;;;;5036745;28;20137;-81
2022/03/18 00:24:37;;;;;;;29.15;7.78;;;0.70;99.90;;;;;;5033727;28;20049;-81
2022/03/18 00:27:03;;;;;;;38.03;12.48;;;0.80;99.90;;;;;;5033818;28;20041;-81
2022/03/18 00:29:30;;;;;;;34.30;10.80;;;0.70;99.90;;;;;;5024405;28;20042;-81
2022/03/18 00:31:59;;;;;;;37.38;10.32;;;0.70;99.90;;;;;;5037467;28;20041;-82
2022/03/18 00:34:25;;;;;;;34.40;10.85;;;0.70;99.90;;;;;;5037990;28;20029;-83
2022/03/18 00:36:52;;;;;;;35.45;11.70;;;0.60;99.90;;;;;;5037887;28;20048;-83
2022/03/18 00:39:17;;;;;;;42.33;13.00;;;0.60;99.90;;;;;;5038191;28;20068;-83
2022/03/18 00:41:43;;;;;;;27.90;10.88;;;0.60;99.90;;;;;;5037599;28;20038;-81
2022/03/18 00:44:09;;;;;;;31.88;10.43;;;0.70;99.90;;;;;;5022667;28;20053;-81
2022/03/18 00:46:35;;;;;;;33.60;10.95;;;0.70;99.90;;;;;;5016104;28;20124;-82
2022/03/18 00:54:29;;;;;;;39.42;11.23;;;0.70;99.90;;;;;;5014582;28;20089;-82
2022/03/18 00:56:57;;;;;;;32.42;11.10;;;0.70;99.90;;;;;;5013617;28;20074;-81
2022/03/18 00:59:23;;;;;;;39.00;12.20;;;0.80;99.90;;;;;;5014280;28;20034;-82
2022/03/18 01:01:52;;;;;;;44.58;12.93;;;0.70;99.90;;;;;;5013984;28;20447;-82
2022/03/18 01:04:21;;;;;;;34.60;12.52;;;0.70;99.90;;;;;;5014667;28;20041;-82
2022/03/18 01:06:47;;;;;;;45.60;14.15;;;0.70;99.90;;;;;;5014371;28;20042;-82
2022/03/18 01:09:13;;;;;;;46.45;12.57;;;0.70;99.90;;;;;;5014206;28;20049;-81
2022/03/18 01:11:38;;;;;;;36.13;12.27;;;0.70;99.90;;;;;;5015806;28;20046;-82
2022/03/18 01:14:04;;;;;;;32.30;11.38;;;0.70;99.90;;;;;;5018038;28;20117;-81
2022/03/18 01:16:33;;;;;;;40.67;12.77;;;1.30;99.90;;;;;;5017763;28;20050;-82
2022/03/18 01:18:58;;;;;;;36.03;12.40;;;0.60;99.90;;;;;;5018135;28;20041;-82
2022/03/18 01:21:24;;;;;;;41.63;12.07;;;0.60;99.90;;;;;;5017296;28;20042;-82
2022/03/18 01:23:49;;;;;;;37.75;13.30;;;0.50;99.90;;;;;;5017299;28;20050;-82
2022/03/18 01:26:15;;;;;;;49.38;13.60;;;0.60;99.90;;;;;;5016506;28;20088;-82
2022/03/18 01:28:40;;;;;;;39.00;12.07;;;0.60;99.90;;;;;;5017629;28;20504;-82
2022/03/18 01:31:06;;;;;;;37.95;14.25;;;0.80;99.90;;;;;;5017931;28;20041;-82
2022/03/18 01:33:33;;;;;;;30.85;14.68;;;0.70;99.90;;;;;;5017809;28;20124;-82
2022/03/18 01:35:59;;;;;;;51.28;13.95;;;0.70;99.90;;;;;;5016591;28;20145;-82
2022/03/18 01:38:25;;;;;;;43.60;16.75;;;0.70;99.90;;;;;;5017999;28;20080;-82
2022/03/18 01:40:51;;;;;;;40.40;14.48;;;0.70;99.90;;;;;;5017815;28;20148;-83
2022/03/18 01:43:17;;;;;;;39.40;14.93;;;0.70;99.90;;;;;;5018029;28;20069;-83
2022/03/18 01:45:42;;;;;;;47.75;16.05;;;0.60;99.90;;;;;;5017794;28;20041;-83
2022/03/18 01:48:08;;;;;;;51.85;15.60;;;0.70;99.90;;;;;;5017594;28;20125;-81
2022/03/18 01:50:34;;;;;;;49.72;18.17;;;0.90;99.90;;;;;;5017020;28;20044;-82
2022/03/18 01:53:00;;;;;;;47.75;18.30;;;0.60;99.90;;;;;;5017473;28;20042;-83
2022/03/18 01:55:26;;;;;;;43.00;17.08;;;0.60;99.90;;;;;;5017077;28;20504;-82
2022/03/18 01:57:52;;;;;;;49.17;19.65;;;0.60;99.90;;;;;;5016029;28;20106;-82
2022/03/18 02:00:19;;;;;;;46.17;16.50;;;0.60;99.90;;;;;;5017649;28;20073;-83
2022/03/18 02:02:48;;;;;;;67.18;21.23;;;0.70;99.90;;;;;;5017528;28;20038;-83
2022/03/18 02:05:14;;;;;;;47.17;18.23;;;0.80;99.90;;;;;;5017457;28;20072;-82
2022/03/18 02:07:39;;;;;;;56.35;20.27;;;1.20;99.90;;;;;;5016960;28;20551;-82
2022/03/18 02:10:06;;;;;;;49.72;19.30;;;0.80;99.90;;;;;;5015246;28;20050;-83
2022/03/18 02:12:32;;;;;;;42.20;17.95;;;0.90;99.90;;;;;;4999586;28;20046;-82
2022/03/18 02:14:57;;;;;;;66.80;19.75;;;0.90;99.90;;;;;;5017514;28;20049;-83
2022/03/18 02:17:23;;;;;;;61.40;20.45;;;0.90;99.90;;;;;;5017157;28;20168;-82
2022/03/18 02:19:49;;;;;;;67.00;21.65;;;0.90;99.90;;;;;;5016731;28;20042;-83
2022/03/18 02:22:23;;;;;;;52.92;20.88;;;0.90;99.90;;;;;;5015663;28;20480;-83
2022/03/18 02:24:57;;;;;;;54.15;20.60;;;1.00;99.90;;;;;;5017120;28;20044;-82
2022/03/18 02:27:23;;;;;;;60.90;20.25;;;0.90;99.90;;;;;;5015526;28;20045;-83
2022/03/18 02:29:49;;;;;;;58.88;22.30;;;0.90;99.90;;;;;;5016859;28;20034;-82
2022/03/18 02:32:16;;;;;;;49.03;21.83;;;1.00;99.90;;;;;;5015610;28;20070;-82
2022/03/18 02:34:42;;;;;;;63.85;21.60;;;1.00;99.90;;;;;;5015643;28;20077;-82
2022/03/18 02:37:08;;;;;;;56.92;22.65;;;1.00;99.90;;;;;;5016613;28;20564;-82
2022/03/18 02:39:35;;;;;;;54.47;21.73;;;0.90;99.90;;;;;;5015806;28;20494;-82
2022/03/18 02:44:32;;;;;;;59.53;21.38;;;0.90;99.90;;;;;;4982640;28;20059;-83
2022/03/18 02:46:58;;;;;;;49.03;20.15;;;0.90;99.90;;;;;;4975747;28;20050;-83
2022/03/18 02:49:25;;;;;;;54.75;21.88;;;0.90;99.90;;;;;;4958205;28;20051;-83
2022/03/18 02:51:51;;;;;;;68.93;23.80;;;0.90;99.90;;;;;;4989562;28;20050;-84
2022/03/18 02:54:17;;;;;;;64.90;24.27;;;0.90;99.90;;;;;;4995104;28;20097;-83
2022/03/18 02:56:42;;;;;;;55.97;24.65;;;0.90;99.90;;;;;;4995619;28;20054;-83
2022/03/18 02:59:08;;;;;;;62.72;24.23;;;0.80;99.90;;;;;;4995729;28;20174;-83
2022/03/18 03:01:34;;;;;;;69.82;22.42;;;0.80;99.90;;;;;;4995602;28;20089;-84
2022/03/18 03:03:59;;;;;;;68.28;24.40;;;0.70;99.90;;;;;;4995530;28;20038;-84
2022/03/18 03:09:11;;;;;;;60.38;23.63;;;0.60;99.90;;;;;;4995248;28;20061;-83
2022/03/18 03:11:37;;;;;;;60.35;25.30;;;0.70;99.90;;;;;;4978037;28;20046;-83
2022/03/18 03:14:02;;;;;;;55.53;22.70;;;0.70;99.90;;;;;;4995223;28;20042;-83
2022/03/18 03:16:28;;;;;;;51.25;23.42;;;0.80;99.90;;;;;;4994835;28;20060;-83
2022/03/18 03:18:54;;;;;;;61.40;25.65;;;0.80;99.90;;;;;;4994750;28;20034;-83
2022/03/18 03:21:19;;;;;;;61.88;26.33;;;0.70;99.90;;;;;;4976482;28;20050;-84
2022/03/18 03:23:45;;;;;;;65.13;23.77;;;0.70;99.90;;;;;;4977503;28;20078;-83
2022/03/18 03:26:12;;;;;;;69.90;24.52;;;0.70;99.90;;;;;;4994540;28;20096;-83
2022/03/18 03:28:37;;;;;;;53.17;23.65;;;0.60;99.90;;;;;;4994825;28;20042;-83
2022/03/18 03:31:03;;;;;;;55.13;24.55;;;0.60;99.90;;;;;;4994585;28;20469;-83
2022/03/18 03:33:29;;;;;;;62.60;23.58;;;0.60;99.90;;;;;;4994129;28;20046;-83
2022/03/18 03:35:55;;;;;;;62.58;23.08;;;0.60;99.90;;;;;;4994519;28;20446;-83
2022/03/18 03:38:21;;;;;;;65.00;25.23;;;0.60;99.90;;;;;;4994924;28;20763;-83
2022/03/18 03:40:47;;;;;;;65.43;25.48;;;0.60;99.90;;;;;;4994290;28;20039;-83
2022/03/18 03:43:13;;;;;;;72.90;26.65;;;0.60;99.90;;;;;;4994210;28;20524;-83
2022/03/18 03:45:40;;;;;;;68.45;24.73;;;0.60;99.90;;;;;;4994445;28;20050;-83
2022/03/18 03:48:07;;;;;;;60.28;24.08;;;0.80;99.90;;;;;;4996045;28;20054;-83
2022/03/18 03:50:34;;;;;;;58.30;25.15;;;0.50;99.90;;;;;;4993537;28;20541;-83
2022/03/18 03:53:00;;;;;;;60.35;23.80;;;0.50;99.90;;;;;;4975130;28;20561;-83
2022/03/18 03:55:26;;;;;;;77.00;25.42;;;0.40;99.90;;;;;;4990301;28;20074;-84
2022/03/18 03:57:52;;;;;;;59.90;23.98;;;0.40;99.90;;;;;;4994183;28;20130;-83
2022/03/18 04:00:17;;;;;;;65.30;25.95;;;0.40;99.90;;;;;;4993666;28;20081;-84
2022/03/18 04:02:46;;;;;;;53.20;23.33;;;0.30;99.90;;;;;;4994074;28;20042;-83
2022/03/18 04:05:12;;;;;;;52.30;24.20;;;0.30;99.90;;;;;;4994282;28;20043;-83
2022/03/18 04:07:39;;;;;;;60.58;24.20;;;0.30;99.90;;;;;;4976875;28;20528;-83
2022/03/18 04:10:06;;;;;;;60.67;24.05;;;0.30;99.90;;;;;;4993877;28;20513;-83
2022/03/18 04:12:35;;;;;;;62.22;25.38;;;0.30;99.90;;;;;;4993735;28;20508;-83
2022/03/18 04:15:05;;;;;;;67.75;27.00;;;0.30;99.90;;;;;;4993868;28;20046;-83
2022/03/18 04:17:40;;;;;;;73.40;27.15;;;0.20;99.90;;;;;;4993600;28;20050;-83
2022/03/18 04:20:11;;;;;;;67.45;25.95;;;0.20;99.90;;;;;;4993802;28;20501;-83
2022/03/18 04:22:38;;;;;;;58.33;24.92;;;0.20;99.90;;;;;;4993653;28;20130;-83
2022/03/18 04:25:04;;;;;;;60.35;25.95;;;0.30;99.90;;;;;;4993619;28;20386;-83
2022/03/18 04:27:30;;;;;;;67.80;26.60;;;0.30;99.90;;;;;;4993627;28;20049;-83
2022/03/18 04:29:55;;;;;;;61.65;25.67;;;0.30;99.90;;;;;;4993495;28;20042;-83
2022/03/18 04:32:21;;;;;;;62.92;25.13;;;0.30;99.90;;;;;;4993495;28;20082;-83
2022/03/18 04:34:47;;;;;;;59.47;26.50;;;0.30;99.90;;;;;;4993919;28;20116;-83
2022/03/18 04:37:13;;;;;;;65.70;24.92;;;0.20;99.90;;;;;;4993949;28;20050;-83
2022/03/18 04:39:38;;;;;;;60.83;25.13;;;0.20;99.90;;;;;;4993652;28;20042;-83
2022/03/18 04:42:04;;;;;;;57.08;26.05;;;0.20;99.90;;;;;;4993175;28;20035;-83
2022/03/18 04:44:30;;;;;;;52.67;24.83;;;0.30;99.90;;;;;;4993093;28;20137;-83
2022/03/18 04:46:55;;;;;;;57.03;23.65;;;0.30;99.90;;;;;;4997304;28;20116;-83
2022/03/18 04:49:21;;;;;;;56.35;25.48;;;0.20;99.90;;;;;;4997979;28;20386;-83
2022/03/18 04:51:46;;;;;;;63.95;24.67;;;0.30;99.90;;;;;;4997312;28;20404;-83
2022/03/18 04:54:12;;;;;;;59.10;24.05;;;0.30;99.90;;;;;;4997767;28;20054;-83
2022/03/18 04:59:22;;;;;;;66.53;23.52;;;0.30;99.90;;;;;;4997234;28;20108;-83
2022/03/18 05:01:48;;;;;;;70.50;26.85;;;0.40;99.90;;;;;;4997529;28;20129;-83
2022/03/18 05:04:13;;;;;;;68.40;26.20;;;0.30;99.90;;;;;;4978584;28;20405;-84
2022/03/18 05:06:39;;;;;;;71.43;27.20;;;0.30;99.90;;;;;;4978159;28;20039;-83
2022/03/18 05:09:05;;;;;;;67.75;27.13;;;0.30;99.90;;;;;;4978162;28;20485;-83
2022/03/18 05:11:31;;;;;;;62.40;27.33;;;0.30;99.90;;;;;;4992929;28;20488;-83
2022/03/18 05:13:58;;;;;;;65.35;28.55;;;0.30;99.90;;;;;;4996893;28;20049;-83
2022/03/18 05:16:25;;;;;;;64.78;26.92;;;0.20;99.90;;;;;;4997532;28;20047;-83
2022/03/18 05:18:51;;;;;;;66.55;27.58;;;0.20;99.90;;;;;;4997660;28;20116;-84
2022/03/18 05:21:16;;;;;;;72.93;30.52;;;0.20;99.90;;;;;;4979897;28;20444;-83
2022/03/18 05:23:42;;;;;;;67.07;28.30;;;0.20;99.90;;;;;;4980376;28;20050;-83
2022/03/18 05:26:08;;;;;;;66.82;29.25;;;0.20;99.90;;;;;;4996707;28;20046;-83
2022/03/18 05:28:33;;;;;;;64.57;28.20;;;0.20;99.90;;;;;;4997161;28;20129;-83
2022/03/18 05:30:59;;;;;;;70.40;31.02;;;0.10;99.90;;;;;;4997025;28;20045;-83
2022/03/18 05:33:26;;;;;;;79.35;29.77;;;0.20;99.90;;;;;;4996953;28;20078;-83
2022/03/18 05:35:51;;;;;;;68.65;29.33;;;0.20;99.90;;;;;;4996682;28;20053;-83
2022/03/18 05:38:17;;;;;;;73.57;30.98;;;0.30;99.90;;;;;;4996905;28;20042;-84
2022/03/18 05:40:43;;;;;;;72.88;28.95;;;0.20;99.90;;;;;;4996420;28;20042;-83
2022/03/18 05:43:09;;;;;;;72.25;31.15;;;0.20;99.90;;;;;;4996300;28;20419;-84
2022/03/18 05:45:34;;;;;;;74.50;30.08;;;0.20;99.90;;;;;;4996754;28;20102;-84
2022/03/18 05:48:00;;;;;;;80.47;31.67;;;0.10;99.90;;;;;;4996688;28;20081;-84
2022/03/18 05:50:26;;;;;;;81.15;30.63;;;0.10;99.90;;;;;;4996409;28;20069;-83
2022/03/18 05:52:52;;;;;;;72.80;31.85;;;0.10;99.90;;;;;;4996416;28;20096;-84
2022/03/18 05:55:18;;;;;;;70.95;33.13;;;0.10;99.90;;;;;;4996591;28;20491;-84
2022/03/18 05:57:43;;;;;;;74.90;33.17;;;0.10;99.90;;;;;;4996161;28;20407;-84
2022/03/18 06:00:10;;;;;;;77.13;33.80;;;0.10;99.90;;;;;;4996240;28;20133;-84
2022/03/18 06:02:36;;;;;;;78.68;32.05;;;0.10;99.90;;;;;;4995849;28;20396;-84
2022/03/18 06:05:01;;;;;;;79.82;34.10;;;0.10;99.90;;;;;;4996350;28;20125;-84
2022/03/18 06:07:27;;;;;;;75.82;33.45;;;0.20;99.90;;;;;;4995990;28;20045;-83
2022/03/18 06:12:37;;;;;;;79.97;34.58;;;0.10;99.90;;;;;;4996288;28;20587;-84
2022/03/18 06:15:03;;;;;;;90.65;34.15;;;0.20;99.90;;;;;;4995777;28;20082;-84
2022/03/18 06:17:29;;;;;;;84.20;35.30;;;0.30;99.90;;;;;;4999425;28;20042;-84
2022/03/18 06:19:54;;;;;;;82.55;33.80;;;0.40;99.90;;;;;;4995654;28;20497;-83
2022/03/18 06:22:20;;;;;;;80.40;34.78;;;0.50;99.90;;;;;;4993512;28;20046;-83
2022/03/18 06:24:46;;;;;;;84.03;36.20;;;0.50;99.90;;;;;;4967013;28;20148;-84
2022/03/18 06:27:11;;;;;;;88.88;37.15;;;0.60;99.90;;;;;;4985923;28;20370;-84
2022/03/18 06:29:37;;;;;;;82.57;36.05;;;0.70;99.90;;;;;;4976895;28;20493;-84
2022/03/18 06:32:03;;;;;;;83.72;36.45;;;0.70;99.90;;;;;;4993507;28;20038;-84
2022/03/18 06:34:29;;;;;;;76.18;35.03;;;0.80;99.90;;;;;;4994171;28;20050;-84
2022/03/18 06:36:57;;;;;;;84.03;37.15;;;1.00;99.90;;;;;;4993350;28;20405;-83
2022/03/18 06:39:24;;;;;;;83.25;36.70;;;1.00;99.90;;;;;;4992430;28;20054;-84
2022/03/18 06:41:50;;;;;;;94.65;38.67;;;1.10;99.90;;;;;;4993470;28;20046;-84
2022/03/18 06:44:16;;;;;;;95.10;39.65;;;1.10;99.90;;;;;;4993371;28;20061;-84
2022/03/18 06:46:42;;;;;;;87.00;39.40;;;1.20;99.90;;;;;;4993426;28;20046;-84
2022/03/18 06:49:08;;;;;;;86.45;37.55;;;1.20;99.90;;;;;;5011851;28;20121;-82
2022/03/18 06:51:34;;;;;;;74.55;37.55;;;1.30;99.90;;;;;;5017616;28;20058;-83
2022/03/18 06:54:00;;;;;;;81.22;38.25;;;1.50;99.90;;;;;;5015537;28;20037;-83
2022/03/18 06:56:27;;;;;;;86.95;38.58;;;1.60;99.90;;;;;;4996431;28;20039;-83
2022/03/18 06:58:53;;;;;;;90.85;38.65;;;1.70;99.90;;;;;;4994332;28;20468;-83
2022/03/18 07:01:21;;;;;;;90.75;40.88;;;1.80;99.90;;;;;;4982587;28;20074;-84
2022/03/18 07:03:47;;;;;;;110.78;43.25;;;1.90;99.90;;;;;;4983032;28;20047;-84
2022/03/18 07:06:12;;;;;;;93.57;41.88;;;2.70;99.90;;;;;;4983633;28;20093;-84
2022/03/18 07:08:38;;;;;;;91.93;41.13;;;2.20;99.90;;;;;;4973579;28;20054;-84
2022/03/18 07:11:03;;;;;;;91.97;42.38;;;2.30;99.90;;;;;;4973449;28;20170;-83
2022/03/18 07:13:29;;;;;;;88.70;38.70;;;2.50;99.90;;;;;;4974911;28;20058;-83
2022/03/18 07:15:55;;;;;;;91.90;40.38;;;2.60;99.90;;;;;;4974232;28;20047;-83
2022/03/18 07:18:20;;;;;;;82.82;39.03;;;2.70;99.90;;;;;;4976668;28;20034;-84
2022/03/18 07:20:46;;;;;;;87.88;40.13;;;2.80;99.90;;;;;;4984405;28;20039;-84
2022/03/18 07:23:14;;;;;;;101.68;40.80;;;2.90;99.90;;;;;;4982828;28;20090;-84
2022/03/18 07:25:48;;;;;;;78.30;39.60;;;2.90;99.90;;;;;;4981415;28;20048;-84
2022/03/18 07:28:15;;;;;;;71.50;39.85;;;3.00;99.90;;;;;;4983989;28;20113;-84
2022/03/18 07:30:42;;;;;;;87.88;42.72;;;3.10;99.90;;;;;;4979208;28;20061;-84
2022/03/18 07:33:08;;;;;;;82.13;39.05;;;3.30;99.90;;;;;;4981300;28;20042;-84
2022/03/18 07:35:35;;;;;;;83.07;38.85;;;3.30;99.90;;;;;;4992184;28;20092;-84
2022/03/18 07:38:02;;;;;;;78.78;38.38;;;3.50;99.90;;;;;;4975052;28;20058;-84
2022/03/18 07:40:29;;;;;;;80.22;39.58;;;3.60;99.90;;;;;;4992306;28;20050;-84
2022/03/18 07:42:56;;;;;;;66.47;35.63;;;3.70;99.90;;;;;;4993359;28;20133;-83
2022/03/18 07:45:27;;;;;;;81.50;40.08;;;3.80;99.90;;;;;;4992381;28;20046;-84
2022/03/18 07:48:04;;;;;;;87.18;41.17;;;3.90;99.90;;;;;;4984348;28;20051;-83
2022/03/18 07:50:30;;;;;;;;;;;4.10;99.90;;;;;;4974642;28;20421;-84
2022/03/18 07:52:58;;;;;;;75.93;35.85;;;4.20;99.90;;;;;;4973015;28;20009;-84
2022/03/18 07:55:25;;;;;;;61.80;33.28;;;4.40;99.90;;;;;;4975186;28;20070;-84
2022/03/18 07:57:52;;;;;;;64.72;34.40;;;4.60;99.90;;;;;;4957931;28;20101;-84
2022/03/18 08:00:18;;;;;;;68.72;34.55;;;4.60;99.90;;;;;;4974393;28;20046;-84
2022/03/18 08:02:45;;;;;;;55.35;31.33;;;4.70;99.90;;;;;;4974561;28;20059;-84
2022/03/18 08:05:11;;;;;;;62.53;32.20;;;4.80;99.90;;;;;;4974695;28;20082;-84
2022/03/18 08:07:37;;;;;;;49.22;29.55;;;4.90;99.90;;;;;;4974656;28;20038;-84
2022/03/18 08:10:04;;;;;;;56.00;28.42;;;5.10;99.90;;;;;;4974538;28;20046;-84
2022/03/18 08:12:31;;;;;;;47.88;27.45;;;5.30;99.90;;;;;;4974152;28;20509;-84
2022/03/18 08:14:58;;;;;;;50.72;26.73;;;5.40;99.90;;;;;;4974141;28;20101;-84
2022/03/18 08:17:24;;;;;;;52.50;26.08;;;5.60;99.90;;;;;;4974404;28;20400;-84
2022/03/18 08:19:51;;;;;;;47.88;26.30;;;5.70;99.90;;;;;;4973470;28;20039;-84
2022/03/18 08:22:21;;;;;;;45.78;24.40;;;5.90;99.90;;;;;;4974621;28;20055;-84
2022/03/18 08:24:48;;;;;;;44.95;22.63;;;6.10;99.90;;;;;;4974305;28;20043;-84
2022/03/18 08:27:14;;;;;;;36.28;21.00;;;6.50;99.90;;;;;;4976234;28;20386;-84
2022/03/18 08:29:40;;;;;;;31.85;19.70;;;6.50;99.90;;;;;;4974500;28;20051;-83
2022/03/18 08:32:07;;;;;;;31.02;17.77;;;6.70;99.90;;;;;;4974765;28;20113;-83
2022/03/18 08:34:32;;;;;;;37.55;17.08;;;7.00;99.90;;;;;;4974969;28;20127;-83
2022/03/18 08:36:58;;;;;;;37.28;16.45;;;7.10;99.90;;;;;;4974976;28;20515;-83
2022/03/18 08:39:24;;;;;;;32.63;14.50;;;7.10;99.90;;;;;;4974904;28;20046;-83
2022/03/18 08:41:50;;;;;;;25.27;15.27;;;7.20;99.90;;;;;;4957422;28;20038;-83
2022/03/18 08:44:19;;;;;;;35.58;15.60;;;7.30;99.90;;;;;;4974480;28;20463;-83
2022/03/18 08:46:46;;;;;;;34.72;14.00;;;7.50;99.90;;;;;;4974589;28;20096;-83
2022/03/18 08:49:11;;;;;;;31.33;13.35;;;7.70;99.90;;;;;;4974487;28;20046;-83
2022/03/18 08:51:37;;;;;;;26.27;13.88;;;7.80;99.90;;;;;;4974310;28;20073;-83
2022/03/18 08:54:03;;;;;;;28.95;12.57;;;7.90;99.90;;;;;;4974440;28;20043;-83
2022/03/18 08:56:29;;;;;;;24.02;12.75;;;8.20;99.90;;;;;;4974646;28;20054;-83
2022/03/18 08:58:54;;;;;;;32.97;12.43;;;8.30;99.90;;;;;;4974485;28;20063;-83
2022/03/18 09:01:20;;;;;;;25.00;12.77;;;8.40;99.90;;;;;;4975138;28;20097;-83
2022/03/18 09:03:47;;;;;;;29.83;12.45;;;8.60;99.90;;;;;;4974867;28;20094;-83
2022/03/18 09:06:14;;;;;;;25.02;12.77;;;8.80;99.90;;;;;;4974560;28;20070;-83
2022/03/18 09:08:41;;;;;;;31.27;12.57;;;8.90;99.90;;;;;;4974529;28;20055;-83
2022/03/18 09:11:07;;;;;;;28.15;12.73;;;9.00;99.90;;;;;;4975025;28;20035;-83
2022/03/18 09:13:34;;;;;;;27.42;12.63;;;9.10;99.90;;;;;;4975752;28;20047;-83
2022/03/18 09:16:01;;;;;;;27.05;12.40;;;9.10;99.90;;;;;;4975288;28;20401;-83
2022/03/18 09:18:27;;;;;;;24.90;12.00;;;9.30;99.90;;;;;;4975164;28;20156;-83
2022/03/18 09:20:52;;;;;;;25.75;11.77;;;9.60;99.90;;;;;;4975082;28;20051;-83
2022/03/18 09:23:18;;;;;;;29.75;12.65;;;9.90;99.90;;;;;;4974478;28;20038;-84
2022/03/18 09:25:44;;;;;;;27.20;13.02;;;10.30;99.90;;;;;;4974811;28;20081;-84
2022/03/18 09:28:09;;;;;;;23.52;12.48;;;10.60;99.90;;;;;;4974821;28;20505;-84
2022/03/18 09:30:35;;;;;;;23.88;10.13;;;10.80;99.90;;;;;;4974616;28;20050;-83
2022/03/18 09:33:02;;;;;;;21.30;10.35;;;11.00;99.90;;;;;;4977742;28;20043;-84
2022/03/18 09:35:27;;;;;;;25.27;11.60;;;11.30;99.90;;;;;;4978007;28;20074;-84
2022/03/18 09:37:53;;;;;;;22.55;9.80;;;11.50;99.90;;;;;;4978446;28;20525;-83
2022/03/18 09:40:19;;;;;;;23.13;10.45;;;11.80;99.90;;;;;;4977650;28;20049;-84
2022/03/18 09:42:56;;;;;;;23.58;10.50;;;11.90;99.90;;;;;;4977990;28;20046;-83
2022/03/18 09:45:30;;;;;;;18.63;8.88;;;12.10;99.90;;;;;;4977907;28;20050;-84
2022/03/18 09:48:00;;;;;;;31.10;11.02;;;12.20;99.90;;;;;;4960554;28;20098;-84
2022/03/18 09:50:27;;;;;;;22.17;9.85;;;12.40;99.90;;;;;;4977867;28;20136;-84
2022/03/18 09:52:52;;;;;;;26.80;10.98;;;12.60;99.90;;;;;;4977705;28;20097;-84
2022/03/18 09:55:18;;;;;;;26.45;8.35;;;12.30;99.90;;;;;;4977506;28;20485;-84
2022/03/18 09:57:44;;;;;;;26.98;9.30;;;12.60;99.90;;;;;;4977718;28;20095;-85
2022/03/18 10:00:11;;;;;;;26.10;9.43;;;12.70;99.90;;;;;;4959911;28;20084;-85
2022/03/18 10:02:37;;;;;;;27.20;10.50;;;12.60;99.90;;;;;;4976800;28;20050;-85
2022/03/18 10:05:10;;;;;;;19.48;9.07;;;12.80;99.90;;;;;;4976994;28;20065;-84
2022/03/18 10:07:36;;;;;;;21.77;9.80;;;12.70;99.90;;;;;;4976983;28;20047;-84
2022/03/18 10:10:14;;;;;;;21.85;8.15;;;12.80;99.90;;;;;;4977186;28;20054;-84
2022/03/18 10:12:42;;;;;;;29.27;9.45;;;12.90;99.90;;;;;;4977306;28;20038;-84
2022/03/18 10:15:11;;;;;;;27.42;9.27;;;13.00;99.90;;;;;;4976243;28;20070;-84
2022/03/18 10:17:45;;;;;;;22.50;8.15;;;13.00;99.90;;;;;;4977055;28;20051;-84
2022/03/18 10:20:35;;;;;;;21.67;7.05;;;13.30;99.90;;;;;;4977384;28;20096;-84
2022/03/18 10:23:20;;;;;;;24.73;8.90;;;13.40;99.90;;;;;;4977175;28;20046;-84
2022/03/18 10:25:50;;;;;;;24.13;9.15;;;13.50;99.90;;;;;;4977196;28;20043;-84
2022/03/18 10:28:37;;;;;;;23.20;8.48;;;13.60;99.90;;;;;;4959657;28;20113;-84
2022/03/18 10:31:29;;;;;;;16.08;7.13;;;13.60;99.90;;;;;;4977515;28;20122;-84
2022/03/18 10:37:04;;;;;;;16.88;8.38;;;14.00;99.90;;;;;;4976896;28;20133;-84
2022/03/18 10:39:34;;;;;;;25.10;9.60;;;14.20;99.90;;;;;;4976960;28;20125;-84
2022/03/18 10:42:03;;;;;;;19.02;7.85;;;14.10;99.90;;;;;;4977222;28;20410;-84
2022/03/18 10:44:41;;;;;;;13.20;6.35;;;14.30;99.90;;;;;;4975576;28;20520;-84
2022/03/18 10:47:09;;;;;;;17.88;6.75;;;14.20;99.90;;;;;;4978012;28;20050;-84
2022/03/18 10:49:35;;;;;;;22.42;8.10;;;14.30;99.90;;;;;;4960277;28;20086;-84
2022/03/18 10:52:14;;;;;;;12.82;5.97;;;14.20;99.90;;;;;;4978020;28;20089;-84
2022/03/18 10:54:40;;;;;;;18.20;6.75;;;14.40;99.90;;;;;;4976713;28;20449;-84
2022/03/18 10:57:05;;;;;;;20.60;7.18;;;14.60;99.90;;;;;;4976831;28;20043;-84
2022/03/18 10:59:31;;;;;;;16.58;6.63;;;14.60;99.90;;;;;;4977172;28;20089;-84
2022/03/18 11:01:58;;;;;;;16.77;6.63;;;14.80;99.90;;;;;;4977548;28;20145;-83
2022/03/18 11:04:24;;;;;;;21.55;7.82;;;14.80;99.90;;;;;;4977628;28;20098;-83
2022/03/18 11:12:27;;;;;;;19.33;6.47;;;14.90;99.90;;;;;;4976502;28;20051;-83
2022/03/18 11:14:56;;;;;;;16.60;6.25;;;15.20;99.90;;;;;;4976832;28;20485;-83
2022/03/18 11:17:23;;;;;;;17.83;6.80;;;15.30;99.90;;;;;;4976729;28;20047;-83
2022/03/18 11:19:53;;;;;;;21.95;7.15;;;15.10;99.90;;;;;;4976875;28;20057;-83
2022/03/18 11:22:21;;;;;;;19.67;6.28;;;15.10;99.90;;;;;;4976886;28;20057;-83
2022/03/18 11:24:48;;;;;;;14.52;7.20;;;15.40;99.90;;;;;;4976398;28;20054;-83
2022/03/18 11:27:13;;;;;;;21.75;7.25;;;15.80;99.90;;;;;;4976501;28;20135;-83
2022/03/18 11:29:40;;;;;;;17.05;6.15;;;15.70;99.90;;;;;;4976688;28;20519;-83
2022/03/18 11:32:15;;;;;;;14.23;6.43;;;15.80;99.90;;;;;;4977000;28;20046;-83
2022/03/18 11:34:45;;;;;;;15.57;5.63;;;15.90;99.90;;;;;;4958742;28;20059;-83
2022/03/18 11:37:11;;;;;;;16.50;5.90;;;16.00;99.90;;;;;;4976191;28;20146;-84
2022/03/18 11:39:38;;;;;;;19.23;6.57;;;15.90;99.90;;;;;;4975949;28;20090;-83
2022/03/18 11:42:12;;;;;;;15.00;6.60;;;16.20;99.90;;;;;;4975952;28;20121;-84
2022/03/18 11:44:40;;;;;;;14.10;5.13;;;16.20;99.90;;;;;;4959616;28;20046;-82
2022/03/18 11:47:30;;;;;;;17.45;6.18;;;16.50;99.90;;;;;;4975336;28;20502;-82
2022/03/18 11:49:57;;;;;;;15.43;5.88;;;16.00;99.90;;;;;;4975640;28;20129;-82
2022/03/18 11:52:23;;;;;;;15.98;5.80;;;16.10;99.90;;;;;;4975316;28;20050;-82
2022/03/18 11:54:54;;;;;;;14.88;5.43;;;16.00;99.90;;;;;;4975463;28;20039;-82
2022/03/18 11:57:34;;;;;;;13.57;4.57;;;16.00;99.90;;;;;;4975131;28;20050;-82
2022/03/18 12:00:05;;;;;;;12.82;4.32;;;16.20;99.90;;;;;;4975300;28;20050;-83
2022/03/18 12:02:35;;;;;;;18.17;6.18;;;16.40;99.90;;;;;;4975134;28;20117;-83
2022/03/18 12:05:02;;;;;;;14.90;5.40;;;16.20;99.90;;;;;;4974990;28;20046;-83
2022/03/18 12:07:30;;;;;;;14.60;5.50;;;16.20;99.90;;;;;;4974920;28;20043;-82
2022/03/18 12:09:59;;;;;;;16.27;6.38;;;16.10;99.90;;;;;;4974733;28;20050;-83
2022/03/18 12:12:29;;;;;;;23.13;8.05;;;16.20;99.90;;;;;;4974823;28;20458;-82
2022/03/18 12:14:56;;;;;;;20.23;7.80;;;16.50;99.90;;;;;;4974854;28;20050;-82
2022/03/18 12:17:23;;;;;;;18.73;7.03;;;16.70;99.90;;;;;;4974919;28;20454;-83
2022/03/18 12:19:59;;;;;;;14.18;5.50;;;17.10;99.90;;;;;;4974949;28;20039;-82
2022/03/18 12:22:27;;;;;;;15.38;4.57;;;17.40;99.90;;;;;;4974921;28;20445;-83
2022/03/18 12:24:55;;;;;;;16.00;6.30;;;17.30;99.10;;;;;;4974833;28;20405;-83
2022/03/18 12:27:27;;;;;;;12.43;4.93;;;17.10;99.90;;;;;;4974786;28;20042;-83
2022/03/18 12:29:58;;;;;;;13.77;5.22;;;17.20;98.10;;;;;;4974915;28;20126;-83
2022/03/18 12:32:24;;;;;;;18.05;6.47;;;17.00;96.50;;;;;;4957247;28;20568;-83
2022/03/18 12:34:51;;;;;;;16.95;5.95;;;16.70;99.90;;;;;;4974563;28;20089;-83
2022/03/18 12:37:23;;;;;;;14.18;5.55;;;16.90;99.90;;;;;;4974558;28;20150;-83
2022/03/18 12:40:02;;;;;;;12.35;5.15;;;17.20;97.10;;;;;;4974919;28;20126;-83
2022/03/18 12:42:28;;;;;;;19.30;5.93;;;17.20;93.10;;;;;;4979208;28;20170;-83
2022/03/18 12:44:59;;;;;;;17.63;6.97;;;16.60;94.50;;;;;;4989862;28;20051;-83
2022/03/18 12:47:27;;;;;;;17.77;5.82;;;16.40;97.90;;;;;;4991273;28;20050;-83
2022/03/18 12:49:52;;;;;;;14.82;6.13;;;16.70;96.60;;;;;;4989970;28;20070;-83
2022/03/18 12:52:19;;;;;;;16.27;5.50;;;16.40;96.60;;;;;;4990337;28;20045;-82
2022/03/18 12:55:09;;;;;;;13.43;5.50;;;16.50;99.30;;;;;;4998185;28;20058;-82
2022/03/18 12:57:39;;;;;;;18.60;5.90;;;16.00;99.90;;;;;;4976929;28;20051;-83
2022/03/18 13:00:08;;;;;;;15.52;6.45;;;15.20;99.90;;;;;;4958279;28;20050;-83
2022/03/18 13:02:34;;;;;;;15.43;6.25;;;15.20;99.90;;;;;;4976575;28;20050;-83
2022/03/18 13:05:02;;;;;;;13.65;5.90;;;15.50;99.90;;;;;;4976551;28;20050;-83